createdAt,value
2018-02-04T00:00:36.076Z,15.10
2018-02-04T00:01:36.102Z,15.10
2018-02-04T00:02:36.145Z,15.10
2018-02-04T00:03:36.079Z,15.10
2018-02-04T00:04:36.213Z,12.30
2018-02-04T00:05:36.146Z,12.30
2018-02-04T00:06:36.086Z,12.30
2018-02-04T00:07:36.088Z,12.30
2018-02-04T00:08:36.149Z,12.30
2018-02-04T00:09:36.084Z,12.30
2018-02-04T00:10:36.154Z,12.30
2018-02-04T00:11:36.082Z,12.30
2018-02-04T00:12:36.084Z,12.30
2018-02-04T00:13:36.156Z,12.30
2018-02-04T00:14:36.024Z,13.40
2018-02-04T00:15:36.019Z,13.40
2018-02-04T00:16:36.031Z,13.40
2018-02-04T00:17:36.023Z,13.40
2018-02-04T00:18:36.022Z,13.40
2018-02-04T00:19:36.086Z,13.40
2018-02-04T00:20:36.022Z,13.40
2018-02-04T00:21:36.085Z,13.40
2018-02-04T00:22:36.137Z,13.40
2018-02-04T00:23:36.058Z,13.40
2018-02-04T00:24:36.243Z,13.40
2018-02-04T00:25:36.160Z,13.40
2018-02-04T00:26:36.123Z,13.40
2018-02-04T00:27:36.092Z,13.40
2018-02-04T00:28:36.160Z,13.40
2018-02-04T00:29:36.092Z,13.40
2018-02-04T00:30:36.093Z,13.40
2018-02-04T00:31:36.162Z,13.40
2018-02-04T00:32:36.164Z,13.40
2018-02-04T00:33:36.095Z,13.40
2018-02-04T00:34:36.166Z,13.50
2018-02-04T00:35:36.201Z,13.50
2018-02-04T00:36:36.103Z,13.50
2018-02-04T00:37:36.169Z,13.50
2018-02-04T00:38:36.166Z,13.50
2018-02-04T00:39:36.165Z,13.50
2018-02-04T00:40:36.166Z,13.50
2018-02-04T00:41:36.214Z,13.50
2018-02-04T00:42:36.107Z,13.50
2018-02-04T00:43:36.172Z,13.50
2018-02-04T00:44:36.100Z,17.40
2018-02-04T00:45:36.175Z,17.40
2018-02-04T00:46:36.059Z,17.40
2018-02-04T00:47:36.178Z,17.40
2018-02-04T00:48:36.104Z,17.40
2018-02-04T00:49:36.173Z,17.40
2018-02-04T00:50:36.109Z,17.40
2018-02-04T00:51:36.112Z,17.40
2018-02-04T00:52:36.173Z,17.40
2018-02-04T00:53:36.126Z,17.40
2018-02-04T00:54:36.175Z,15.50
2018-02-04T00:55:36.180Z,15.50
2018-02-04T00:56:36.109Z,15.50
2018-02-04T00:57:36.178Z,15.50
2018-02-04T00:58:36.113Z,15.50
2018-02-04T00:59:36.177Z,15.50
2018-02-04T01:00:36.112Z,15.50
2018-02-04T01:01:36.182Z,15.50
2018-02-04T01:02:36.117Z,15.50
2018-02-04T01:03:36.114Z,15.50
2018-02-04T01:04:36.180Z,14.50
2018-02-04T01:05:36.181Z,14.50
2018-02-04T01:06:36.117Z,14.50
2018-02-04T01:07:36.118Z,14.50
2018-02-04T01:08:36.185Z,14.50
2018-02-04T01:09:36.123Z,14.50
2018-02-04T01:10:36.183Z,14.50
2018-02-04T01:11:36.190Z,14.50
2018-02-04T01:12:36.188Z,14.50
2018-02-04T01:13:36.195Z,14.50
2018-02-04T01:14:36.058Z,14.90
2018-02-04T01:15:36.179Z,14.90
2018-02-04T01:16:36.178Z,14.90
2018-02-04T01:17:36.114Z,14.90
2018-02-04T01:18:36.174Z,14.90
2018-02-04T01:19:36.181Z,14.90
2018-02-04T01:20:36.182Z,14.90
2018-02-04T01:21:36.122Z,14.90
2018-02-04T01:22:36.186Z,14.90
2018-02-04T01:23:36.081Z,14.90
2018-02-04T01:24:36.096Z,11.10
2018-02-04T01:25:36.114Z,11.10
2018-02-04T01:26:36.084Z,11.10
2018-02-04T01:27:36.189Z,11.10
2018-02-04T01:28:36.102Z,11.10
2018-02-04T01:29:36.189Z,11.10
2018-02-04T01:30:36.184Z,11.10
2018-02-04T01:31:36.119Z,11.10
2018-02-04T01:32:36.102Z,11.10
2018-02-04T01:33:36.102Z,11.10
2018-02-04T01:34:36.131Z,14.70
2018-02-04T01:35:36.201Z,14.70
2018-02-04T01:36:36.146Z,14.70
2018-02-04T01:37:36.203Z,14.70
2018-02-04T01:38:36.142Z,14.70
2018-02-04T01:39:36.252Z,14.70
2018-02-04T01:40:36.137Z,14.70
2018-02-04T01:41:36.205Z,14.70
2018-02-04T01:42:36.137Z,14.70
2018-02-04T01:43:36.204Z,14.70
2018-02-04T01:44:36.060Z,13.00
2018-02-04T01:45:36.064Z,13.00
2018-02-04T01:46:36.065Z,13.00
2018-02-04T01:47:36.064Z,13.00
2018-02-04T01:48:36.153Z,13.00
2018-02-04T01:49:36.104Z,13.00
2018-02-04T01:50:36.069Z,13.00
2018-02-04T01:51:36.109Z,13.00
2018-02-04T01:52:36.064Z,13.00
2018-02-04T01:53:36.063Z,13.00
2018-02-04T01:54:36.181Z,11.40
2018-02-04T01:55:36.202Z,11.40
2018-02-04T01:56:36.208Z,11.40
2018-02-04T01:57:36.154Z,11.40
2018-02-04T01:58:36.205Z,11.40
2018-02-04T01:59:36.205Z,11.40
2018-02-04T02:00:36.085Z,11.40
2018-02-04T02:01:36.119Z,11.40
2018-02-04T02:02:36.105Z,11.40
2018-02-04T02:03:36.238Z,11.40
2018-02-04T02:04:36.154Z,10.70
2018-02-04T02:05:36.177Z,10.70
2018-02-04T02:06:36.179Z,10.70
2018-02-04T02:07:36.219Z,10.70
2018-02-04T02:08:36.228Z,10.70
2018-02-04T02:09:36.155Z,10.70
2018-02-04T02:10:36.105Z,10.70
2018-02-04T02:11:36.161Z,10.70
2018-02-04T02:12:36.242Z,10.70
2018-02-04T02:13:36.226Z,10.70
2018-02-04T02:14:36.156Z,8.70
2018-02-04T02:15:36.229Z,8.70
2018-02-04T02:16:36.158Z,8.70
2018-02-04T02:17:36.223Z,8.70
2018-02-04T02:18:36.175Z,8.70
2018-02-04T02:19:36.232Z,8.70
2018-02-04T02:20:36.163Z,8.70
2018-02-04T02:21:36.227Z,8.70
2018-02-04T02:22:36.231Z,8.70
2018-02-04T02:23:36.161Z,8.70
2018-02-04T02:24:36.230Z,6.99
2018-02-04T02:25:36.179Z,6.99
2018-02-04T02:26:36.230Z,6.99
2018-02-04T02:27:36.231Z,6.99
2018-02-04T02:28:36.161Z,6.99
2018-02-04T02:29:36.232Z,6.99
2018-02-04T02:30:36.167Z,6.99
2018-02-04T02:31:36.166Z,6.99
2018-02-04T02:32:36.234Z,6.99
2018-02-04T02:33:36.174Z,6.99
2018-02-04T02:34:36.236Z,5.20
2018-02-04T02:35:36.163Z,5.20
2018-02-04T02:36:36.185Z,5.20
2018-02-04T02:37:36.297Z,5.20
2018-02-04T02:38:36.238Z,5.20
2018-02-04T02:39:36.174Z,5.20
2018-02-04T02:40:36.266Z,5.20
2018-02-04T02:41:36.239Z,5.20
2018-02-04T02:42:36.171Z,5.20
2018-02-04T02:43:36.239Z,5.20
2018-02-04T02:44:36.175Z,5.30
2018-02-04T02:45:36.186Z,5.30
2018-02-04T02:46:36.244Z,5.30
2018-02-04T02:47:36.174Z,5.30
2018-02-04T02:48:36.170Z,5.30
2018-02-04T02:49:36.244Z,5.30
2018-02-04T02:50:36.256Z,5.30
2018-02-04T02:51:36.178Z,5.30
2018-02-04T02:52:36.176Z,5.30
2018-02-04T02:53:36.183Z,5.30
2018-02-04T02:54:36.177Z,5.50
2018-02-04T02:55:36.133Z,5.50
2018-02-04T02:56:36.131Z,5.50
2018-02-04T02:57:36.155Z,5.50
2018-02-04T02:58:36.258Z,5.50
2018-02-04T02:59:36.114Z,5.50
2018-02-04T03:00:36.159Z,5.50
2018-02-04T03:01:36.244Z,5.50
2018-02-04T03:02:36.199Z,5.50
2018-02-04T03:03:36.205Z,5.50
2018-02-04T03:04:36.201Z,6.70
2018-02-04T03:05:36.261Z,6.70
2018-02-04T03:06:36.254Z,6.70
2018-02-04T03:07:36.261Z,6.70
2018-02-04T03:08:36.191Z,6.70
2018-02-04T03:09:36.192Z,6.70
2018-02-04T03:10:36.266Z,6.70
2018-02-04T03:11:36.199Z,6.70
2018-02-04T03:12:36.193Z,6.70
2018-02-04T03:13:36.267Z,6.70
2018-02-04T03:14:36.260Z,4.50
2018-02-04T03:15:36.264Z,4.50
2018-02-04T03:16:36.266Z,4.50
2018-02-04T03:17:36.267Z,4.50
2018-02-04T03:18:36.262Z,4.50
2018-02-04T03:19:36.261Z,4.50
2018-02-04T03:20:36.275Z,4.50
2018-02-04T03:21:36.337Z,4.50
2018-02-04T03:22:44.663Z,4.50
2018-02-04T03:23:36.198Z,4.50
2018-02-04T03:24:36.236Z,7.60
2018-02-04T03:25:36.192Z,7.60
2018-02-04T03:26:36.205Z,7.60
2018-02-04T03:27:36.257Z,7.60
2018-02-04T03:28:36.153Z,7.60
2018-02-04T03:29:36.265Z,7.60
2018-02-04T03:30:36.189Z,7.60
2018-02-04T03:31:36.219Z,7.60
2018-02-04T03:32:36.156Z,7.60
2018-02-04T03:33:36.136Z,7.60
2018-02-04T03:34:36.164Z,6.30
2018-02-04T03:35:36.161Z,6.30
2018-02-04T03:36:36.133Z,6.30
2018-02-04T03:37:36.237Z,6.30
2018-02-04T03:38:36.140Z,6.30
2018-02-04T03:39:36.195Z,6.30
2018-02-04T03:40:36.163Z,6.30
2018-02-04T03:41:36.238Z,6.30
2018-02-04T03:42:36.259Z,6.30
2018-02-04T03:43:36.224Z,6.30
2018-02-04T03:44:36.267Z,8.40
2018-02-04T03:45:36.269Z,8.40
2018-02-04T03:46:36.207Z,8.40
2018-02-04T03:47:36.230Z,8.40
2018-02-04T03:48:36.169Z,8.40
2018-02-04T03:49:36.147Z,8.40
2018-02-04T03:50:36.218Z,8.40
2018-02-04T03:51:36.161Z,8.40
2018-02-04T03:52:36.274Z,8.40
2018-02-04T03:53:36.164Z,8.40
2018-02-04T03:54:36.172Z,8.00
2018-02-04T03:55:36.213Z,8.00
2018-02-04T03:56:36.268Z,8.00
2018-02-04T03:57:36.213Z,8.00
2018-02-04T03:58:36.173Z,8.00
2018-02-04T03:59:36.268Z,8.00
2018-02-04T04:00:36.243Z,8.00
2018-02-04T04:01:36.234Z,8.00
2018-02-04T04:02:36.246Z,8.00
2018-02-04T04:03:36.253Z,8.00
2018-02-04T04:04:36.197Z,9.60
2018-02-04T04:05:36.192Z,9.60
2018-02-04T04:06:36.280Z,9.60
2018-02-04T04:07:36.283Z,9.60
2018-02-04T04:08:36.177Z,9.60
2018-02-04T04:09:36.294Z,9.60
2018-02-04T04:10:36.180Z,9.60
2018-02-04T04:11:36.286Z,9.60
2018-02-04T04:12:36.159Z,9.60
2018-02-04T04:13:36.232Z,9.60
2018-02-04T04:14:36.186Z,6.00
2018-02-04T04:15:36.244Z,6.00
2018-02-04T04:16:36.219Z,6.00
2018-02-04T04:17:36.285Z,6.00
2018-02-04T04:18:36.249Z,6.00
2018-02-04T04:19:36.216Z,6.00
2018-02-04T04:20:36.257Z,6.00
2018-02-04T04:21:36.287Z,6.00
2018-02-04T04:22:36.224Z,6.00
2018-02-04T04:23:36.229Z,6.00
2018-02-04T04:24:36.207Z,8.40
2018-02-04T04:25:36.292Z,8.40
2018-02-04T04:26:36.256Z,8.40
2018-02-04T04:27:36.206Z,8.40
2018-02-04T04:28:36.214Z,8.40
2018-02-04T04:29:36.237Z,8.40
2018-02-04T04:30:36.173Z,8.40
2018-02-04T04:31:36.297Z,8.40
2018-02-04T04:32:36.302Z,8.40
2018-02-04T04:33:36.179Z,8.40
2018-02-04T04:34:36.335Z,9.40
2018-02-04T04:35:36.251Z,9.40
2018-02-04T04:36:36.309Z,9.40
2018-02-04T04:37:36.243Z,9.40
2018-02-04T04:38:36.309Z,9.40
2018-02-04T04:39:36.246Z,9.40
2018-02-04T04:40:36.311Z,9.40
2018-02-04T04:41:36.247Z,9.40
2018-02-04T04:42:36.313Z,9.40
2018-02-04T04:43:36.246Z,9.40
2018-02-04T04:44:36.315Z,8.20
2018-02-04T04:45:36.256Z,8.20
2018-02-04T04:46:36.324Z,8.20
2018-02-04T04:47:36.321Z,8.20
2018-02-04T04:48:36.315Z,8.20
2018-02-04T04:49:36.252Z,8.20
2018-02-04T04:50:36.253Z,8.20
2018-02-04T04:51:36.321Z,8.20
2018-02-04T04:52:36.285Z,8.20
2018-02-04T04:53:36.326Z,8.20
2018-02-04T04:54:36.259Z,10.80
2018-02-04T04:55:36.325Z,10.80
2018-02-04T04:56:36.261Z,10.80
2018-02-04T04:57:36.281Z,10.80
2018-02-04T04:58:36.323Z,10.80
2018-02-04T04:59:36.259Z,10.80
2018-02-04T05:00:36.328Z,10.80
2018-02-04T05:01:36.265Z,10.80
2018-02-04T05:02:36.291Z,10.80
2018-02-04T05:03:36.334Z,10.80
2018-02-04T05:04:36.325Z,14.40
2018-02-04T05:05:36.270Z,14.40
2018-02-04T05:06:36.232Z,14.40
2018-02-04T05:07:36.238Z,14.40
2018-02-04T05:08:36.482Z,14.40
2018-02-04T05:09:36.468Z,14.40
2018-02-04T05:10:36.324Z,14.40
2018-02-04T05:11:36.327Z,14.40
2018-02-04T05:12:36.326Z,14.40
2018-02-04T05:13:36.321Z,14.40
2018-02-04T05:14:36.257Z,14.40
2018-02-04T05:15:36.201Z,12.50
2018-02-04T05:16:36.270Z,12.50
2018-02-04T05:17:36.198Z,12.50
2018-02-04T05:18:36.256Z,12.50
2018-02-04T05:19:36.243Z,12.50
2018-02-04T05:20:36.206Z,12.50
2018-02-04T05:21:36.203Z,12.50
2018-02-04T05:22:36.329Z,12.50
2018-02-04T05:23:36.247Z,12.50
2018-02-04T05:24:36.328Z,12.50
2018-02-04T05:25:36.338Z,13.70
2018-02-04T05:26:36.285Z,13.70
2018-02-04T05:27:36.374Z,13.70
2018-02-04T05:28:36.313Z,13.70
2018-02-04T05:29:36.340Z,13.70
2018-02-04T05:30:36.345Z,13.70
2018-02-04T05:31:36.336Z,13.70
2018-02-04T05:32:36.277Z,13.70
2018-02-04T05:33:36.352Z,13.70
2018-02-04T05:34:36.285Z,13.70
2018-02-04T05:35:36.350Z,14.60
2018-02-04T05:36:36.281Z,14.60
2018-02-04T05:37:36.349Z,14.60
2018-02-04T05:38:36.350Z,14.60
2018-02-04T05:39:36.281Z,14.60
2018-02-04T05:40:36.348Z,14.60
2018-02-04T05:41:36.284Z,14.60
2018-02-04T05:42:36.284Z,14.60
2018-02-04T05:43:36.299Z,14.60
2018-02-04T05:44:36.354Z,14.60
2018-02-04T05:45:36.351Z,16.50
2018-02-04T05:46:36.287Z,16.50
2018-02-04T05:47:36.285Z,16.50
2018-02-04T05:48:36.355Z,16.50
2018-02-04T05:49:36.353Z,16.50
2018-02-04T05:50:36.292Z,16.50
2018-02-04T05:51:36.287Z,16.50
2018-02-04T05:52:36.358Z,16.50
2018-02-04T05:53:36.289Z,16.50
2018-02-04T05:54:36.359Z,16.50
2018-02-04T05:55:36.360Z,14.70
2018-02-04T05:56:36.370Z,14.70
2018-02-04T05:57:36.366Z,14.70
2018-02-04T05:58:36.297Z,14.70
2018-02-04T05:59:36.360Z,14.70
2018-02-04T06:00:36.316Z,14.70
2018-02-04T06:01:36.363Z,14.70
2018-02-04T06:02:36.302Z,14.70
2018-02-04T06:03:36.368Z,14.70
2018-02-04T06:04:36.303Z,14.70
2018-02-04T06:05:36.269Z,14.00
2018-02-04T06:06:36.311Z,14.00
2018-02-04T06:07:36.222Z,14.00
2018-02-04T06:08:36.314Z,14.00
2018-02-04T06:09:36.266Z,14.00
2018-02-04T06:10:36.232Z,14.00
2018-02-04T06:11:36.273Z,14.00
2018-02-04T06:12:36.272Z,14.00
2018-02-04T06:13:36.315Z,14.00
2018-02-04T06:14:36.318Z,14.00
2018-02-04T06:15:36.372Z,14.50
2018-02-04T06:16:36.380Z,14.50
2018-02-04T06:17:36.306Z,14.50
2018-02-04T06:18:36.372Z,14.50
2018-02-04T06:19:36.416Z,14.50
2018-02-04T06:20:36.303Z,14.50
2018-02-04T06:21:36.377Z,14.50
2018-02-04T06:22:36.376Z,14.50
2018-02-04T06:23:36.305Z,14.50
2018-02-04T06:24:36.380Z,14.50
2018-02-04T06:25:36.320Z,12.10
2018-02-04T06:26:36.377Z,12.10
2018-02-04T06:27:36.316Z,12.10
2018-02-04T06:28:36.382Z,12.10
2018-02-04T06:29:36.314Z,12.10
2018-02-04T06:30:36.378Z,12.10
2018-02-04T06:31:36.378Z,12.10
2018-02-04T06:32:36.314Z,12.10
2018-02-04T06:33:36.410Z,12.10
2018-02-04T06:34:36.379Z,12.10
2018-02-04T06:35:36.304Z,10.80
2018-02-04T06:36:36.250Z,10.80
2018-02-04T06:37:36.248Z,10.80
2018-02-04T06:38:36.292Z,10.80
2018-02-04T06:39:36.316Z,10.80
2018-02-04T06:40:36.286Z,10.80
2018-02-04T06:41:36.388Z,10.80
2018-02-04T06:42:36.273Z,10.80
2018-02-04T06:43:36.353Z,10.80
2018-02-04T06:44:36.333Z,10.80
2018-02-04T06:45:36.351Z,14.00
2018-02-04T06:46:36.341Z,14.00
2018-02-04T06:47:36.290Z,14.00
2018-02-04T06:48:36.339Z,14.00
2018-02-04T06:49:36.315Z,14.00
2018-02-04T06:50:36.371Z,14.00
2018-02-04T06:51:36.319Z,14.00
2018-02-04T06:52:36.354Z,14.00
2018-02-04T06:53:36.337Z,14.00
2018-02-04T06:54:36.267Z,14.00
2018-02-04T06:55:36.264Z,14.40
2018-02-04T06:56:36.317Z,14.40
2018-02-04T06:57:36.299Z,14.40
2018-02-04T06:58:36.357Z,14.40
2018-02-04T06:59:36.291Z,14.40
2018-02-04T07:00:36.327Z,14.40
2018-02-04T07:01:36.384Z,14.40
2018-02-04T07:02:36.327Z,14.40
2018-02-04T07:03:36.271Z,14.40
2018-02-04T07:04:36.324Z,14.40
2018-02-04T07:05:36.403Z,12.70
2018-02-04T07:06:36.338Z,12.70
2018-02-04T07:07:36.403Z,12.70
2018-02-04T07:08:36.352Z,12.70
2018-02-04T07:09:36.410Z,12.70
2018-02-04T07:10:36.341Z,12.70
2018-02-04T07:11:36.342Z,12.70
2018-02-04T07:12:36.344Z,12.70
2018-02-04T07:13:36.405Z,12.70
2018-02-04T07:14:36.341Z,12.70
2018-02-04T07:15:36.277Z,14.10
2018-02-04T07:16:36.366Z,14.10
2018-02-04T07:17:36.305Z,14.10
2018-02-04T07:18:36.270Z,14.10
2018-02-04T07:19:36.335Z,14.10
2018-02-04T07:20:36.365Z,14.10
2018-02-04T07:21:36.277Z,14.10
2018-02-04T07:22:36.415Z,14.10
2018-02-04T07:23:36.398Z,14.10
2018-02-04T07:24:36.308Z,14.10
2018-02-04T07:25:36.424Z,14.60
2018-02-04T07:26:36.386Z,14.60
2018-02-04T07:27:36.415Z,14.60
2018-02-04T07:28:36.373Z,14.60
2018-02-04T07:29:36.419Z,14.60
2018-02-04T07:30:36.350Z,14.60
2018-02-04T07:31:36.416Z,14.60
2018-02-04T07:32:36.353Z,14.60
2018-02-04T07:33:36.415Z,14.60
2018-02-04T07:34:36.346Z,14.60
2018-02-04T07:35:36.416Z,11.60
2018-02-04T07:36:36.396Z,11.60
2018-02-04T07:37:36.358Z,11.60
2018-02-04T07:38:36.424Z,11.60
2018-02-04T07:39:36.577Z,11.60
2018-02-04T07:40:36.356Z,11.60
2018-02-04T07:41:36.426Z,11.60
2018-02-04T07:42:36.359Z,11.60
2018-02-04T07:43:36.354Z,11.60
2018-02-04T07:44:36.424Z,11.60
2018-02-04T07:45:36.398Z,13.40
2018-02-04T07:46:36.353Z,13.40
2018-02-04T07:47:36.426Z,13.40
2018-02-04T07:48:36.362Z,13.40
2018-02-04T07:49:36.424Z,13.40
2018-02-04T07:50:36.402Z,13.40
2018-02-04T07:51:36.426Z,13.40
2018-02-04T07:52:36.454Z,13.40
2018-02-04T07:53:36.359Z,13.40
2018-02-04T07:54:36.428Z,13.40
2018-02-04T07:55:36.326Z,18.00
2018-02-04T07:56:36.322Z,18.00
2018-02-04T07:57:36.394Z,18.00
2018-02-04T07:58:36.327Z,18.00
2018-02-04T07:59:36.383Z,18.00
2018-02-04T08:00:36.307Z,18.00
2018-02-04T08:01:36.326Z,18.00
2018-02-04T08:02:36.357Z,18.00
2018-02-04T08:03:36.302Z,18.00
2018-02-04T08:04:36.386Z,18.00
2018-02-04T08:05:36.411Z,13.40
2018-02-04T08:06:36.396Z,13.40
2018-02-04T08:07:36.407Z,13.40
2018-02-04T08:08:36.409Z,13.40
2018-02-04T08:09:36.324Z,13.40
2018-02-04T08:10:36.394Z,13.40
2018-02-04T08:11:36.439Z,13.40
2018-02-04T08:12:36.433Z,13.40
2018-02-04T08:13:36.438Z,13.40
2018-02-04T08:14:36.351Z,13.40
2018-02-04T08:15:36.444Z,15.30
2018-02-04T08:16:36.371Z,15.30
2018-02-04T08:17:36.442Z,15.30
2018-02-04T08:18:36.373Z,15.30
2018-02-04T08:19:36.330Z,15.30
2018-02-04T08:20:36.387Z,15.30
2018-02-04T08:21:36.377Z,15.30
2018-02-04T08:22:36.447Z,15.30
2018-02-04T08:23:36.380Z,15.30
2018-02-04T08:24:36.469Z,15.30
2018-02-04T08:25:36.381Z,13.90
2018-02-04T08:26:36.451Z,13.90
2018-02-04T08:27:36.449Z,13.90
2018-02-04T08:28:36.397Z,13.90
2018-02-04T08:29:36.463Z,13.90
2018-02-04T08:30:36.385Z,13.90
2018-02-04T08:31:36.385Z,13.90
2018-02-04T08:32:36.450Z,13.90
2018-02-04T08:33:36.519Z,13.90
2018-02-04T08:34:36.385Z,13.90
2018-02-04T08:35:36.434Z,13.40
2018-02-04T08:36:36.388Z,13.40
2018-02-04T08:37:36.339Z,13.40
2018-02-04T08:38:36.461Z,13.40
2018-02-04T08:39:36.389Z,13.40
2018-02-04T08:40:36.463Z,13.40
2018-02-04T08:41:36.394Z,13.40
2018-02-04T08:42:36.476Z,13.40
2018-02-04T08:43:36.393Z,13.40
2018-02-04T08:44:36.466Z,13.40
2018-02-04T08:45:36.331Z,11.30
2018-02-04T08:46:36.425Z,11.30
2018-02-04T08:47:36.376Z,11.30
2018-02-04T08:48:36.441Z,11.30
2018-02-04T08:49:36.394Z,11.30
2018-02-04T08:50:36.325Z,11.30
2018-02-04T08:51:36.446Z,11.30
2018-02-04T08:52:36.447Z,11.30
2018-02-04T08:53:36.449Z,11.30
2018-02-04T08:54:36.323Z,11.30
2018-02-04T08:55:36.399Z,12.20
2018-02-04T08:56:36.417Z,12.20
2018-02-04T08:57:36.472Z,12.20
2018-02-04T08:58:36.404Z,12.20
2018-02-04T08:59:36.467Z,12.20
2018-02-04T09:00:36.468Z,12.20
2018-02-04T09:01:36.469Z,12.20
2018-02-04T09:02:36.628Z,12.20
2018-02-04T09:03:36.400Z,12.20
2018-02-04T09:04:36.470Z,12.20
2018-02-04T09:05:36.491Z,11.50
2018-02-04T09:06:36.401Z,11.50
2018-02-04T09:07:36.472Z,11.50
2018-02-04T09:08:36.404Z,11.50
2018-02-04T09:09:36.474Z,11.50
2018-02-04T09:10:36.408Z,11.50
2018-02-04T09:11:36.504Z,11.50
2018-02-04T09:12:36.400Z,11.50
2018-02-04T09:13:36.477Z,11.50
2018-02-04T09:14:36.409Z,11.50
2018-02-04T09:15:36.477Z,10.80
2018-02-04T09:16:36.405Z,10.80
2018-02-04T09:17:36.503Z,10.80
2018-02-04T09:18:36.410Z,10.80
2018-02-04T09:19:36.479Z,10.80
2018-02-04T09:20:36.410Z,10.80
2018-02-04T09:21:36.420Z,10.80
2018-02-04T09:22:36.483Z,10.80
2018-02-04T09:23:36.413Z,10.80
2018-02-04T09:24:36.483Z,10.80
2018-02-04T09:25:36.456Z,9.90
2018-02-04T09:26:36.392Z,9.90
2018-02-04T09:27:36.447Z,9.90
2018-02-04T09:28:36.386Z,9.90
2018-02-04T09:29:36.369Z,9.90
2018-02-04T09:30:36.421Z,9.90
2018-02-04T09:31:36.454Z,9.90
2018-02-04T09:32:36.369Z,9.90
2018-02-04T09:33:36.372Z,9.90
2018-02-04T09:34:36.457Z,9.90
2018-02-04T09:35:36.423Z,10.70
2018-02-04T09:36:36.423Z,10.70
2018-02-04T09:37:36.490Z,10.70
2018-02-04T09:38:36.536Z,10.70
2018-02-04T09:39:36.428Z,10.70
2018-02-04T09:40:36.492Z,10.70
2018-02-04T09:41:36.424Z,10.70
2018-02-04T09:42:36.510Z,10.70
2018-02-04T09:43:36.424Z,10.70
2018-02-04T09:44:36.493Z,10.70
2018-02-04T09:45:36.496Z,9.70
2018-02-04T09:46:36.426Z,9.70
2018-02-04T09:47:36.499Z,9.70
2018-02-04T09:48:36.427Z,9.70
2018-02-04T09:49:36.501Z,9.70
2018-02-04T09:50:36.435Z,9.70
2018-02-04T09:51:36.499Z,9.70
2018-02-04T09:52:36.527Z,9.70
2018-02-04T09:53:36.434Z,9.70
2018-02-04T09:54:36.500Z,9.70
2018-02-04T09:55:36.437Z,9.20
2018-02-04T09:56:36.504Z,9.20
2018-02-04T09:57:36.464Z,9.20
2018-02-04T09:58:36.458Z,9.20
2018-02-04T09:59:36.434Z,9.20
2018-02-04T10:00:36.503Z,9.20
2018-02-04T10:01:36.435Z,9.20
2018-02-04T10:02:36.507Z,9.20
2018-02-04T10:03:36.443Z,9.20
2018-02-04T10:04:36.507Z,9.20
2018-02-04T10:05:36.443Z,9.40
2018-02-04T10:06:36.509Z,9.40
2018-02-04T10:07:36.442Z,9.40
2018-02-04T10:08:36.509Z,9.40
2018-02-04T10:09:36.462Z,9.40
2018-02-04T10:10:36.392Z,9.40
2018-02-04T10:11:36.448Z,9.40
2018-02-04T10:12:36.512Z,9.40
2018-02-04T10:13:36.445Z,9.40
2018-02-04T10:14:36.442Z,9.40
2018-02-04T10:15:36.398Z,10.00
2018-02-04T10:16:36.403Z,10.00
2018-02-04T10:17:36.383Z,10.00
2018-02-04T10:18:36.454Z,10.00
2018-02-04T10:19:36.505Z,10.00
2018-02-04T10:20:36.448Z,10.00
2018-02-04T10:21:36.424Z,10.00
2018-02-04T10:22:36.421Z,10.00
2018-02-04T10:23:36.511Z,10.00
2018-02-04T10:24:36.450Z,10.00
2018-02-04T10:25:36.455Z,7.30
2018-02-04T10:26:36.519Z,7.30
2018-02-04T10:27:36.453Z,7.30
2018-02-04T10:28:36.522Z,7.30
2018-02-04T10:29:36.453Z,7.30
2018-02-04T10:30:36.520Z,7.30
2018-02-04T10:31:36.456Z,7.30
2018-02-04T10:32:36.529Z,7.30
2018-02-04T10:33:36.453Z,7.30
2018-02-04T10:34:36.523Z,7.30
2018-02-04T10:35:36.457Z,7.80
2018-02-04T10:36:36.524Z,7.80
2018-02-04T10:37:36.458Z,7.80
2018-02-04T10:38:36.457Z,7.80
2018-02-04T10:39:36.528Z,7.80
2018-02-04T10:40:36.529Z,7.80
2018-02-04T10:41:36.473Z,7.80
2018-02-04T10:42:36.530Z,7.80
2018-02-04T10:43:36.464Z,7.80
2018-02-04T10:44:36.529Z,7.80
2018-02-04T10:45:36.458Z,8.50
2018-02-04T10:46:36.534Z,8.50
2018-02-04T10:47:36.460Z,8.50
2018-02-04T10:48:36.533Z,8.50
2018-02-04T10:49:36.467Z,8.50
2018-02-04T10:50:36.534Z,8.50
2018-02-04T10:51:36.465Z,8.50
2018-02-04T10:52:36.535Z,8.50
2018-02-04T10:53:36.467Z,8.50
2018-02-04T10:54:36.536Z,8.50
2018-02-04T10:55:36.472Z,5.60
2018-02-04T10:56:36.465Z,5.60
2018-02-04T10:57:36.541Z,5.60
2018-02-04T10:58:36.470Z,5.60
2018-02-04T10:59:36.541Z,5.60
2018-02-04T11:00:36.474Z,5.60
2018-02-04T11:01:36.542Z,5.60
2018-02-04T11:02:36.542Z,5.60
2018-02-04T11:03:36.543Z,5.60
2018-02-04T11:04:36.471Z,5.60
2018-02-04T11:05:36.542Z,6.40
2018-02-04T11:06:36.476Z,6.40
2018-02-04T11:07:36.545Z,6.40
2018-02-04T11:08:36.482Z,6.40
2018-02-04T11:09:36.547Z,6.40
2018-02-04T11:10:36.478Z,6.40
2018-02-04T11:11:36.550Z,6.40
2018-02-04T11:12:36.475Z,6.40
2018-02-04T11:13:36.549Z,6.40
2018-02-04T11:14:36.549Z,6.40
2018-02-04T11:15:36.454Z,6.80
2018-02-04T11:16:36.473Z,6.80
2018-02-04T11:17:36.552Z,6.80
2018-02-04T11:18:36.459Z,6.80
2018-02-04T11:19:36.431Z,6.80
2018-02-04T11:20:36.543Z,6.80
2018-02-04T11:21:36.538Z,6.80
2018-02-04T11:22:36.521Z,6.80
2018-02-04T11:23:36.553Z,6.80
2018-02-04T11:24:36.499Z,6.80
2018-02-04T11:25:36.557Z,6.80
2018-02-04T11:26:36.439Z,6.90
2018-02-04T11:27:36.554Z,6.90
2018-02-04T11:28:36.541Z,6.90
2018-02-04T11:29:36.521Z,6.90
2018-02-04T11:30:36.523Z,6.90
2018-02-04T11:31:36.462Z,6.90
2018-02-04T11:32:36.462Z,6.90
2018-02-04T11:33:36.466Z,6.90
2018-02-04T11:34:36.550Z,6.90
2018-02-04T11:35:36.506Z,6.90
2018-02-04T11:36:36.483Z,7.99
2018-02-04T11:37:36.492Z,7.99
2018-02-04T11:38:36.565Z,7.99
2018-02-04T11:39:36.494Z,7.99
2018-02-04T11:40:36.563Z,7.99
2018-02-04T11:41:36.568Z,7.99
2018-02-04T11:42:36.495Z,7.99
2018-02-04T11:43:36.566Z,7.99
2018-02-04T11:44:36.491Z,7.99
2018-02-04T11:45:36.568Z,7.99
2018-02-04T11:46:36.515Z,6.30
2018-02-04T11:47:36.498Z,6.30
2018-02-04T11:48:36.572Z,6.30
2018-02-04T11:49:36.496Z,6.30
2018-02-04T11:50:36.447Z,6.30
2018-02-04T11:51:36.494Z,6.30
2018-02-04T11:52:36.573Z,6.30
2018-02-04T11:53:36.572Z,6.30
2018-02-04T11:54:36.499Z,6.30
2018-02-04T11:55:36.574Z,6.30
2018-02-04T11:56:36.512Z,6.50
2018-02-04T11:57:36.575Z,6.50
2018-02-04T11:58:36.503Z,6.50
2018-02-04T11:59:36.574Z,6.50
2018-02-04T12:00:36.514Z,6.50
2018-02-04T12:01:36.577Z,6.50
2018-02-04T12:02:36.579Z,6.50
2018-02-04T12:03:36.469Z,6.50
2018-02-04T12:04:36.509Z,6.50
2018-02-04T12:05:36.579Z,6.50
2018-02-04T12:06:36.512Z,7.50
2018-02-04T12:07:36.580Z,7.50
2018-02-04T12:08:36.605Z,7.50
2018-02-04T12:09:36.581Z,7.50
2018-02-04T12:10:36.511Z,7.50
2018-02-04T12:11:36.585Z,7.50
2018-02-04T12:12:36.531Z,7.50
2018-02-04T12:13:36.515Z,7.50
2018-02-04T12:14:36.591Z,7.50
2018-02-04T12:15:36.520Z,7.50
2018-02-04T12:16:36.586Z,7.30
2018-02-04T12:17:36.518Z,7.30
2018-02-04T12:18:36.589Z,7.30
2018-02-04T12:19:36.519Z,7.30
2018-02-04T12:20:36.631Z,7.30
2018-02-04T12:21:36.519Z,7.30
2018-02-04T12:22:36.592Z,7.30
2018-02-04T12:23:36.590Z,7.30
2018-02-04T12:24:36.522Z,7.30
2018-02-04T12:25:36.618Z,7.30
2018-02-04T12:26:36.476Z,7.70
2018-02-04T12:27:36.583Z,7.70
2018-02-04T12:28:36.594Z,7.70
2018-02-04T12:29:36.559Z,7.70
2018-02-04T12:30:36.476Z,7.70
2018-02-04T12:31:36.601Z,7.70
2018-02-04T12:32:36.539Z,7.70
2018-02-04T12:33:36.476Z,7.70
2018-02-04T12:34:36.502Z,7.70
2018-02-04T12:35:36.591Z,7.70
2018-02-04T12:36:36.554Z,8.90
2018-02-04T12:37:36.601Z,8.90
2018-02-04T12:38:36.533Z,8.90
2018-02-04T12:39:36.536Z,8.90
2018-02-04T12:40:36.537Z,8.90
2018-02-04T12:41:36.649Z,8.90
2018-02-04T12:42:36.605Z,8.90
2018-02-04T12:43:36.534Z,8.90
2018-02-04T12:44:36.604Z,8.90
2018-02-04T12:45:36.535Z,8.90
2018-02-04T12:46:36.603Z,7.60
2018-02-04T12:47:36.555Z,7.60
2018-02-04T12:48:36.535Z,7.60
2018-02-04T12:49:36.607Z,7.60
2018-02-04T12:50:36.533Z,7.60
2018-02-04T12:51:36.607Z,7.60
2018-02-04T12:52:36.537Z,7.60
2018-02-04T12:53:36.617Z,7.60
2018-02-04T12:54:36.544Z,7.60
2018-02-04T12:55:36.610Z,7.60
2018-02-04T12:56:36.554Z,8.00
2018-02-04T12:57:36.467Z,8.00
2018-02-04T12:58:36.556Z,8.00
2018-02-04T12:59:36.510Z,8.00
2018-02-04T13:00:36.555Z,8.00
2018-02-04T13:01:36.465Z,8.00
2018-02-04T13:02:36.506Z,8.00
2018-02-04T13:03:36.462Z,8.00
2018-02-04T13:04:36.474Z,8.00